createdAt,value
2022-10-25T00:06:10.240Z,4.80
2022-10-25T00:16:15.365Z,3.53
2022-10-25T00:26:19.788Z,4.00
2022-10-25T00:36:25.479Z,4.20
2022-10-25T00:46:32.764Z,4.17
2022-10-25T00:56:40.101Z,3.33
2022-10-25T01:06:48.514Z,3.60
2022-10-25T01:17:00.473Z,3.70
2022-10-25T01:27:31.942Z,3.40
2022-10-25T01:37:45.684Z,2.37
2022-10-25T01:47:52.921Z,2.13
2022-10-25T01:58:11.999Z,2.27
2022-10-25T02:08:23.431Z,2.80
2022-10-25T02:28:42.027Z,2.50
2022-10-25T02:38:47.950Z,2.17
2022-10-25T02:48:51.905Z,2.33
2022-10-25T02:58:58.335Z,2.30
2022-10-25T03:09:01.338Z,2.50
2022-10-25T03:19:05.996Z,2.30
2022-10-25T03:29:08.953Z,2.20
2022-10-25T03:39:13.426Z,2.20
2022-10-25T03:49:16.391Z,2.10
2022-10-25T03:59:20.735Z,2.20
2022-10-25T04:09:23.755Z,2.07
2022-10-25T04:19:28.116Z,2.10
2022-10-25T04:29:31.075Z,2.10
2022-10-25T04:39:35.402Z,2.13
2022-10-25T04:49:38.354Z,2.00
2022-10-25T04:59:42.709Z,2.00
2022-10-25T05:09:47.358Z,2.23
2022-10-25T05:19:51.984Z,2.90
2022-10-25T05:29:55.035Z,3.10
2022-10-25T05:39:59.366Z,3.00
2022-10-25T05:50:02.704Z,2.80
2022-10-25T06:00:08.430Z,3.23
2022-10-25T06:10:11.704Z,3.17
2022-10-25T06:20:16.208Z,3.63
2022-10-25T06:30:19.335Z,3.77
2022-10-25T06:40:23.739Z,3.77
2022-10-25T06:50:26.746Z,3.57
2022-10-25T07:00:31.114Z,3.10
2022-10-25T07:10:34.109Z,3.10
2022-10-25T07:20:38.479Z,3.40
2022-10-25T07:30:47.075Z,3.30
2022-10-25T07:40:56.768Z,2.78
2022-10-25T07:51:03.146Z,3.17
2022-10-25T08:01:09.383Z,2.80
2022-10-25T08:11:12.645Z,2.85
2022-10-25T08:21:16.995Z,2.92
2022-10-25T08:31:20.012Z,2.50
2022-10-25T08:41:30.015Z,2.83
2022-10-25T08:51:36.871Z,2.65
2022-10-25T09:01:45.951Z,2.85
2022-10-25T09:11:59.236Z,2.92
2022-10-25T09:22:05.679Z,4.20
2022-10-25T09:32:15.409Z,9.07
2022-10-25T09:42:24.960Z,4.45
2022-10-25T09:52:35.939Z,4.43
2022-10-25T10:02:41.221Z,4.07
2022-10-25T10:12:50.610Z,3.83
2022-10-25T10:22:55.780Z,4.30
2022-10-25T10:33:02.025Z,4.13
2022-10-25T10:43:24.579Z,3.53
2022-10-25T10:53:29.532Z,3.65
2022-10-25T11:04:00.169Z,4.07
2022-10-25T11:14:12.051Z,3.88
2022-10-25T11:24:29.350Z,3.90
2022-10-25T11:34:41.639Z,3.45
2022-10-25T11:45:18.400Z,3.75
2022-10-25T11:55:32.474Z,3.03
2022-10-25T12:05:41.861Z,3.40
2022-10-25T12:15:47.226Z,3.28
2022-10-25T12:25:54.186Z,3.38
2022-10-25T12:36:02.956Z,3.72
2022-10-25T12:46:19.622Z,3.40
2022-10-25T12:56:35.213Z,3.65
2022-10-25T13:06:41.182Z,2.78
2022-10-25T13:16:44.358Z,3.00
2022-10-25T13:27:20.425Z,2.60
2022-10-25T13:37:42.371Z,3.05
2022-10-25T13:47:48.885Z,3.58
2022-10-25T13:57:54.417Z,4.55
2022-10-25T14:08:15.652Z,5.00
2022-10-25T14:18:22.793Z,4.78
2022-10-25T14:28:28.931Z,4.75
2022-10-25T14:38:39.269Z,5.03
2022-10-25T14:48:46.671Z,4.60
2022-10-25T14:58:50.183Z,5.72
2022-10-25T15:09:22.954Z,5.20
2022-10-25T15:19:22.462Z,5.90
2022-10-25T15:39:57.468Z,6.22
2022-10-25T15:50:05.164Z,7.05
2022-10-25T16:00:09.570Z,6.38
2022-10-25T16:10:13.995Z,7.45
2022-10-25T16:20:19.850Z,7.47
2022-10-25T16:30:26.139Z,7.32
2022-10-25T16:40:29.380Z,7.90
2022-10-25T16:50:34.947Z,8.07
2022-10-25T17:00:37.956Z,7.85
2022-10-25T17:10:45.199Z,7.85
2022-10-25T17:20:50.203Z,8.50
2022-10-25T17:30:54.543Z,8.65
2022-10-25T17:40:57.535Z,8.70
2022-10-25T17:51:07.539Z,10.07
2022-10-25T18:01:11.514Z,9.75
2022-10-25T18:11:19.259Z,10.57
2022-10-25T18:21:22.646Z,11.50
2022-10-25T18:31:28.743Z,11.52
2022-10-25T18:41:34.764Z,12.18
2022-10-25T18:51:40.572Z,12.48
2022-10-25T19:01:43.681Z,13.60
2022-10-25T19:11:48.128Z,12.77
2022-10-25T19:21:51.279Z,13.95
2022-10-25T19:31:57.856Z,14.20
2022-10-25T19:42:00.840Z,13.45
2022-10-25T19:52:05.452Z,13.38
2022-10-25T20:02:09.687Z,18.63
2022-10-25T20:12:14.200Z,17.93
2022-10-25T20:22:17.470Z,16.87
2022-10-25T20:32:22.383Z,14.73
2022-10-25T20:42:25.403Z,13.50
2022-10-25T20:52:29.766Z,15.05
2022-10-25T21:02:32.807Z,14.53
2022-10-25T21:12:37.163Z,16.93
2022-10-25T21:22:41.066Z,17.20
2022-10-25T21:32:45.484Z,18.30
2022-10-25T21:42:49.010Z,17.73
2022-10-25T21:52:55.303Z,18.25
2022-10-25T22:02:58.278Z,15.48
2022-10-25T22:13:02.639Z,17.00
2022-10-25T22:23:05.581Z,17.95
2022-10-25T22:33:09.955Z,17.33
2022-10-25T22:43:12.964Z,16.20
2022-10-25T22:53:17.487Z,16.55
2022-10-25T23:03:20.466Z,17.15
2022-10-25T23:13:24.829Z,15.73
2022-10-25T23:23:29.191Z,15.73
2022-10-25T23:33:33.925Z,15.95
2022-10-25T23:43:37.095Z,16.30
2022-10-25T23:53:41.824Z,16.48
